createdAt,value
2022-11-08T00:08:50.478Z,12.60
2022-11-08T00:18:55.434Z,13.70
2022-11-08T00:28:59.738Z,13.50
2022-11-08T00:39:03.938Z,11.40
2022-11-08T00:49:08.400Z,11.00
2022-11-08T00:59:14.207Z,11.90
2022-11-08T01:09:18.082Z,10.10
2022-11-08T01:19:21.858Z,8.80
2022-11-08T01:29:25.840Z,9.10
2022-11-08T01:39:33.389Z,8.30
2022-11-08T01:49:45.023Z,8.60
2022-11-08T01:59:51.347Z,6.60
2022-11-08T02:09:56.760Z,7.30
2022-11-08T02:20:00.414Z,8.80
2022-11-08T02:30:04.782Z,7.20
2022-11-08T02:40:09.288Z,6.20
2022-11-08T02:50:12.860Z,7.00
2022-11-08T03:00:16.928Z,7.00
2022-11-08T03:10:21.413Z,6.60
2022-11-08T03:20:29.577Z,4.60
2022-11-08T03:30:37.138Z,8.10
2022-11-08T03:40:41.218Z,6.70
2022-11-08T03:50:46.314Z,6.30
2022-11-08T04:00:49.988Z,5.40
2022-11-08T04:11:21.063Z,6.10
2022-11-08T04:21:24.939Z,5.60
2022-11-08T04:31:28.903Z,6.30
2022-11-08T04:41:32.978Z,6.40
2022-11-08T04:51:36.954Z,5.80
2022-11-08T05:01:40.858Z,5.60
2022-11-08T05:11:44.810Z,5.10
2022-11-08T05:22:12.200Z,5.60
2022-11-08T05:32:16.331Z,5.50
2022-11-08T05:42:20.648Z,5.90
2022-11-08T05:52:24.517Z,5.90
2022-11-08T06:02:30.186Z,5.10
2022-11-08T06:12:34.218Z,6.20
2022-11-08T06:22:38.175Z,6.80
2022-11-08T06:32:42.180Z,6.50
2022-11-08T06:42:45.920Z,6.20
2022-11-08T06:52:56.470Z,6.70
2022-11-08T07:03:02.469Z,6.00
2022-11-08T07:13:10.427Z,7.60
2022-11-08T07:23:15.215Z,8.40
2022-11-08T07:33:19.560Z,10.70
2022-11-08T07:43:23.955Z,8.50
2022-11-08T07:53:30.474Z,6.20
2022-11-08T08:03:34.295Z,11.60
2022-11-08T08:13:38.559Z,5.50
2022-11-08T08:23:43.159Z,5.40
2022-11-08T08:33:47.014Z,4.80
2022-11-08T08:43:50.670Z,5.30
2022-11-08T08:53:54.467Z,4.40
2022-11-08T09:03:59.046Z,4.40
2022-11-08T09:14:03.822Z,4.60
2022-11-08T09:24:08.321Z,4.40
2022-11-08T09:34:14.135Z,3.80
2022-11-08T09:44:23.012Z,4.50
2022-11-08T09:54:42.734Z,3.00
2022-11-08T10:04:53.869Z,3.40
2022-11-08T10:15:30.504Z,2.70
2022-11-08T10:25:45.516Z,2.00
2022-11-08T10:36:31.045Z,2.40
2022-11-08T10:46:38.186Z,1.90
2022-11-08T10:56:56.332Z,2.20
2022-11-08T11:17:17.704Z,1.80
2022-11-08T11:27:35.433Z,1.80
2022-11-08T11:37:47.599Z,2.30
2022-11-08T11:48:01.878Z,2.00
2022-11-08T11:58:30.901Z,1.90
2022-11-08T12:08:34.778Z,1.70
2022-11-08T12:19:38.946Z,2.10
2022-11-08T12:29:58.253Z,2.50
2022-11-08T12:40:54.219Z,2.60
2022-11-08T12:51:16.796Z,2.30
2022-11-08T13:01:23.148Z,2.60
2022-11-08T13:11:45.717Z,2.60
2022-11-08T13:21:50.107Z,1.80
2022-11-08T13:31:57.317Z,2.30
2022-11-08T13:42:18.213Z,1.80
2022-11-08T13:52:46.165Z,1.70
2022-11-08T14:02:50.174Z,1.70
2022-11-08T14:13:00.008Z,2.40
2022-11-08T14:23:25.942Z,1.60
2022-11-08T14:33:31.576Z,1.60
2022-11-08T14:43:44.780Z,1.60
2022-11-08T14:53:58.086Z,2.20
2022-11-08T15:04:24.220Z,1.70
2022-11-08T15:14:31.765Z,2.20
2022-11-08T15:24:41.872Z,3.00
2022-11-08T15:34:47.928Z,3.10
2022-11-08T15:45:14.271Z,2.80
2022-11-08T15:55:24.487Z,3.50
2022-11-08T16:05:34.391Z,3.70
2022-11-08T16:15:41.154Z,3.60
2022-11-08T16:25:53.868Z,4.70
2022-11-08T16:36:01.038Z,9.40
2022-11-08T16:46:09.689Z,12.40
2022-11-08T16:56:19.283Z,8.90
2022-11-08T17:06:24.155Z,13.00
2022-11-08T17:16:28.339Z,18.40
2022-11-08T17:26:33.324Z,27.80
2022-11-08T17:36:38.771Z,30.70
2022-11-08T17:46:44.760Z,29.50
2022-11-08T17:56:49.869Z,35.80
2022-11-08T18:06:54.530Z,24.40
2022-11-08T18:17:01.444Z,39.60
2022-11-08T18:27:07.628Z,23.10
2022-11-08T18:37:17.426Z,23.10
2022-11-08T18:47:22.919Z,29.80
2022-11-08T18:57:31.808Z,33.00
2022-11-08T19:07:37.309Z,26.60
2022-11-08T19:17:57.877Z,41.00
2022-11-08T19:28:03.065Z,31.30
2022-11-08T19:38:10.613Z,27.40
2022-11-08T19:48:17.312Z,29.50
2022-11-08T19:58:25.715Z,28.60
2022-11-08T20:08:31.946Z,30.10
2022-11-08T20:18:36.969Z,30.70
2022-11-08T20:28:46.363Z,31.30
2022-11-08T20:39:05.636Z,28.20
2022-11-08T20:49:15.881Z,26.20
2022-11-08T20:59:20.453Z,24.00
2022-11-08T21:09:37.559Z,28.10
2022-11-08T21:19:51.527Z,28.10
2022-11-08T21:29:59.081Z,20.80
2022-11-08T21:40:03.053Z,20.00
2022-11-08T21:50:08.689Z,22.50
2022-11-08T22:00:13.861Z,20.00
2022-11-08T22:10:18.239Z,17.90
2022-11-08T22:20:22.417Z,11.90
2022-11-08T22:30:26.303Z,12.10
2022-11-08T22:40:30.571Z,8.30
2022-11-08T22:50:34.375Z,7.30
2022-11-08T23:00:38.666Z,6.20
2022-11-08T23:11:08.919Z,6.70
2022-11-08T23:21:31.499Z,6.90
2022-11-08T23:31:35.382Z,7.60
2022-11-08T23:41:58.673Z,8.50
2022-11-08T23:52:02.415Z,6.70
